sensor_id;sensor_type;location;lat;lon;timestamp;P1;durP1;ratioP1;P2;durP2;ratioP2
35496;SDS011;21609;49.298;6.844;2024-02-26T00:02:16;0.70;;;0.70;;
35496;SDS011;21609;49.298;6.844;2024-02-26T00:04:41;0.50;;;0.50;;
35496;SDS011;21609;49.298;6.844;2024-02-26T00:07:07;0.60;;;0.60;;
35496;SDS011;21609;49.298;6.844;2024-02-26T00:09:33;1.95;;;0.68;;
35496;SDS011;21609;49.298;6.844;2024-02-26T00:12:01;3.95;;;0.98;;
35496;SDS011;21609;49.298;6.844;2024-02-26T00:14:28;3.88;;;1.13;;
35496;SDS011;21609;49.298;6.844;2024-02-26T00:16:55;3.42;;;0.75;;
35496;SDS011;21609;49.298;6.844;2024-02-26T00:19:20;2.03;;;1.00;;
35496;SDS011;21609;49.298;6.844;2024-02-26T00:21:46;2.80;;;0.90;;
35496;SDS011;21609;49.298;6.844;2024-02-26T00:24:11;1.83;;;0.98;;
35496;SDS011;21609;49.298;6.844;2024-02-26T00:26:37;2.25;;;0.80;;
35496;SDS011;21609;49.298;6.844;2024-02-26T00:29:02;1.52;;;0.73;;
35496;SDS011;21609;49.298;6.844;2024-02-26T00:31:28;2.20;;;0.80;;
35496;SDS011;21609;49.298;6.844;2024-02-26T00:33:54;1.52;;;0.60;;
35496;SDS011;21609;49.298;6.844;2024-02-26T00:36:19;1.35;;;0.85;;
35496;SDS011;21609;49.298;6.844;2024-02-26T00:38:45;0.80;;;0.70;;
35496;SDS011;21609;49.298;6.844;2024-02-26T00:41:15;0.75;;;0.73;;
35496;SDS011;21609;49.298;6.844;2024-02-26T00:43:44;0.85;;;0.60;;
35496;SDS011;21609;49.298;6.844;2024-02-26T00:46:10;0.52;;;0.50;;
35496;SDS011;21609;49.298;6.844;2024-02-26T00:48:35;2.13;;;0.88;;
35496;SDS011;21609;49.298;6.844;2024-02-26T00:51:02;1.38;;;0.47;;
35496;SDS011;21609;49.298;6.844;2024-02-26T00:53:30;0.85;;;0.73;;
35496;SDS011;21609;49.298;6.844;2024-02-26T00:55:56;0.63;;;0.60;;
35496;SDS011;21609;49.298;6.844;2024-02-26T00:58:24;0.80;;;0.60;;
35496;SDS011;21609;49.298;6.844;2024-02-26T01:00:49;0.50;;;0.50;;
35496;SDS011;21609;49.298;6.844;2024-02-26T01:03:15;1.00;;;0.70;;
35496;SDS011;21609;49.298;6.844;2024-02-26T01:05:41;0.70;;;0.60;;
35496;SDS011;21609;49.298;6.844;2024-02-26T01:08:07;3.35;;;0.70;;
35496;SDS011;21609;49.298;6.844;2024-02-26T01:10:33;0.50;;;0.50;;
35496;SDS011;21609;49.298;6.844;2024-02-26T01:12:59;1.00;;;0.60;;
35496;SDS011;21609;49.298;6.844;2024-02-26T01:15:25;2.05;;;0.75;;
35496;SDS011;21609;49.298;6.844;2024-02-26T01:17:50;0.52;;;0.52;;
35496;SDS011;21609;49.298;6.844;2024-02-26T01:20:16;0.95;;;0.65;;
35496;SDS011;21609;49.298;6.844;2024-02-26T01:22:42;1.73;;;0.68;;
35496;SDS011;21609;49.298;6.844;2024-02-26T01:25:08;1.25;;;0.63;;
35496;SDS011;21609;49.298;6.844;2024-02-26T01:27:37;0.80;;;0.60;;
35496;SDS011;21609;49.298;6.844;2024-02-26T01:30:03;0.40;;;0.40;;
35496;SDS011;21609;49.298;6.844;2024-02-26T01:32:29;0.63;;;0.63;;
35496;SDS011;21609;49.298;6.844;2024-02-26T01:34:56;0.50;;;0.50;;
35496;SDS011;21609;49.298;6.844;2024-02-26T01:37:22;2.33;;;0.47;;
35496;SDS011;21609;49.298;6.844;2024-02-26T01:39:47;0.77;;;0.65;;
35496;SDS011;21609;49.298;6.844;2024-02-26T01:42:13;0.75;;;0.52;;
35496;SDS011;21609;49.298;6.844;2024-02-26T01:44:39;0.52;;;0.52;;
35496;SDS011;21609;49.298;6.844;2024-02-26T01:47:07;1.27;;;0.50;;
35496;SDS011;21609;49.298;6.844;2024-02-26T01:49:36;0.50;;;0.50;;
35496;SDS011;21609;49.298;6.844;2024-02-26T01:52:02;0.50;;;0.43;;
35496;SDS011;21609;49.298;6.844;2024-02-26T01:54:29;0.60;;;0.40;;
35496;SDS011;21609;49.298;6.844;2024-02-26T01:56:56;1.45;;;0.70;;
35496;SDS011;21609;49.298;6.844;2024-02-26T01:59:22;0.77;;;0.60;;
35496;SDS011;21609;49.298;6.844;2024-02-26T02:01:48;0.40;;;0.40;;
35496;SDS011;21609;49.298;6.844;2024-02-26T02:04:19;0.60;;;0.55;;
35496;SDS011;21609;49.298;6.844;2024-02-26T02:06:45;0.93;;;0.60;;
35496;SDS011;21609;49.298;6.844;2024-02-26T02:09:12;0.60;;;0.40;;
35496;SDS011;21609;49.298;6.844;2024-02-26T02:11:37;0.57;;;0.57;;
35496;SDS011;21609;49.298;6.844;2024-02-26T02:14:03;0.50;;;0.50;;
35496;SDS011;21609;49.298;6.844;2024-02-26T02:16:29;0.50;;;0.45;;
35496;SDS011;21609;49.298;6.844;2024-02-26T02:18:54;1.65;;;0.50;;
35496;SDS011;21609;49.298;6.844;2024-02-26T02:21:20;0.50;;;0.50;;
35496;SDS011;21609;49.298;6.844;2024-02-26T02:23:45;0.50;;;0.50;;
35496;SDS011;21609;49.298;6.844;2024-02-26T02:26:14;0.77;;;0.60;;
35496;SDS011;21609;49.298;6.844;2024-02-26T02:28:40;0.73;;;0.55;;
35496;SDS011;21609;49.298;6.844;2024-02-26T02:31:06;1.35;;;0.52;;
35496;SDS011;21609;49.298;6.844;2024-02-26T02:33:32;0.73;;;0.70;;
35496;SDS011;21609;49.298;6.844;2024-02-26T02:35:59;0.50;;;0.43;;
35496;SDS011;21609;49.298;6.844;2024-02-26T02:38:25;0.50;;;0.50;;
35496;SDS011;21609;49.298;6.844;2024-02-26T02:40:53;0.75;;;0.50;;
35496;SDS011;21609;49.298;6.844;2024-02-26T02:43:19;1.13;;;0.50;;
35496;SDS011;21609;49.298;6.844;2024-02-26T02:45:44;0.68;;;0.52;;
35496;SDS011;21609;49.298;6.844;2024-02-26T02:48:10;0.57;;;0.40;;
35496;SDS011;21609;49.298;6.844;2024-02-26T02:50:36;0.50;;;0.47;;
35496;SDS011;21609;49.298;6.844;2024-02-26T02:53:02;0.35;;;0.35;;
35496;SDS011;21609;49.298;6.844;2024-02-26T02:55:28;0.57;;;0.50;;
35496;SDS011;21609;49.298;6.844;2024-02-26T02:57:53;0.70;;;0.38;;
35496;SDS011;21609;49.298;6.844;2024-02-26T03:00:19;0.20;;;0.20;;
35496;SDS011;21609;49.298;6.844;2024-02-26T03:02:45;0.60;;;0.43;;
35496;SDS011;21609;49.298;6.844;2024-02-26T03:05:11;0.57;;;0.50;;
35496;SDS011;21609;49.298;6.844;2024-02-26T03:07:36;2.47;;;0.50;;
35496;SDS011;21609;49.298;6.844;2024-02-26T03:10:02;0.90;;;0.40;;
35496;SDS011;21609;49.298;6.844;2024-02-26T03:12:28;0.63;;;0.40;;
35496;SDS011;21609;49.298;6.844;2024-02-26T03:14:55;0.82;;;0.40;;
35496;SDS011;21609;49.298;6.844;2024-02-26T03:17:21;0.40;;;0.40;;
35496;SDS011;21609;49.298;6.844;2024-02-26T03:19:46;0.52;;;0.52;;
35496;SDS011;21609;49.298;6.844;2024-02-26T03:22:12;0.55;;;0.40;;
35496;SDS011;21609;49.298;6.844;2024-02-26T03:24:38;0.95;;;0.50;;
35496;SDS011;21609;49.298;6.844;2024-02-26T03:27:04;0.40;;;0.40;;
35496;SDS011;21609;49.298;6.844;2024-02-26T03:29:34;1.83;;;0.68;;
35496;SDS011;21609;49.298;6.844;2024-02-26T03:32:00;0.30;;;0.30;;
35496;SDS011;21609;49.298;6.844;2024-02-26T03:34:26;1.33;;;0.60;;
35496;SDS011;21609;49.298;6.844;2024-02-26T03:36:52;0.40;;;0.40;;
35496;SDS011;21609;49.298;6.844;2024-02-26T03:39:17;0.50;;;0.50;;
35496;SDS011;21609;49.298;6.844;2024-02-26T03:41:43;0.65;;;0.50;;
35496;SDS011;21609;49.298;6.844;2024-02-26T03:44:08;0.60;;;0.60;;
35496;SDS011;21609;49.298;6.844;2024-02-26T03:46:34;0.65;;;0.50;;
35496;SDS011;21609;49.298;6.844;2024-02-26T03:49:00;0.90;;;0.60;;
35496;SDS011;21609;49.298;6.844;2024-02-26T03:51:26;0.45;;;0.45;;
35496;SDS011;21609;49.298;6.844;2024-02-26T03:53:53;0.82;;;0.75;;
35496;SDS011;21609;49.298;6.844;2024-02-26T03:56:18;0.50;;;0.50;;
35496;SDS011;21609;49.298;6.844;2024-02-26T03:58:45;0.60;;;0.60;;
35496;SDS011;21609;49.298;6.844;2024-02-26T04:01:11;0.65;;;0.45;;
35496;SDS011;21609;49.298;6.844;2024-02-26T04:03:36;1.13;;;0.80;;
35496;SDS011;21609;49.298;6.844;2024-02-26T04:06:02;0.40;;;0.30;;
35496;SDS011;21609;49.298;6.844;2024-02-26T04:08:28;0.88;;;0.52;;
35496;SDS011;21609;49.298;6.844;2024-02-26T04:10:53;0.40;;;0.40;;
35496;SDS011;21609;49.298;6.844;2024-02-26T04:13:19;0.60;;;0.50;;
35496;SDS011;21609;49.298;6.844;2024-02-26T04:15:44;0.40;;;0.30;;
35496;SDS011;21609;49.298;6.844;2024-02-26T04:18:11;0.50;;;0.43;;
35496;SDS011;21609;49.298;6.844;2024-02-26T04:20:36;0.82;;;0.40;;
35496;SDS011;21609;49.298;6.844;2024-02-26T04:23:02;0.70;;;0.68;;
35496;SDS011;21609;49.298;6.844;2024-02-26T04:25:29;0.60;;;0.60;;
35496;SDS011;21609;49.298;6.844;2024-02-26T04:27:54;0.50;;;0.40;;
35496;SDS011;21609;49.298;6.844;2024-02-26T04:30:20;0.50;;;0.50;;
35496;SDS011;21609;49.298;6.844;2024-02-26T04:32:45;1.02;;;0.88;;
35496;SDS011;21609;49.298;6.844;2024-02-26T04:35:11;0.50;;;0.45;;
35496;SDS011;21609;49.298;6.844;2024-02-26T04:37:36;0.77;;;0.73;;
35496;SDS011;21609;49.298;6.844;2024-02-26T04:40:03;1.05;;;0.40;;
35496;SDS011;21609;49.298;6.844;2024-02-26T04:42:29;0.55;;;0.55;;
35496;SDS011;21609;49.298;6.844;2024-02-26T04:44:55;0.63;;;0.57;;
35496;SDS011;21609;49.298;6.844;2024-02-26T04:47:20;0.60;;;0.47;;
35496;SDS011;21609;49.298;6.844;2024-02-26T04:49:47;0.60;;;0.50;;
35496;SDS011;21609;49.298;6.844;2024-02-26T04:52:14;0.70;;;0.60;;
35496;SDS011;21609;49.298;6.844;2024-02-26T04:54:39;1.20;;;0.40;;
35496;SDS011;21609;49.298;6.844;2024-02-26T04:57:05;0.43;;;0.40;;
35496;SDS011;21609;49.298;6.844;2024-02-26T04:59:30;0.50;;;0.50;;
35496;SDS011;21609;49.298;6.844;2024-02-26T05:01:56;0.40;;;0.40;;
35496;SDS011;21609;49.298;6.844;2024-02-26T05:04:21;0.65;;;0.40;;
35496;SDS011;21609;49.298;6.844;2024-02-26T05:06:47;0.30;;;0.30;;
35496;SDS011;21609;49.298;6.844;2024-02-26T05:09:12;2.35;;;0.50;;
35496;SDS011;21609;49.298;6.844;2024-02-26T05:11:38;0.40;;;0.40;;
35496;SDS011;21609;49.298;6.844;2024-02-26T05:14:03;0.45;;;0.40;;
35496;SDS011;21609;49.298;6.844;2024-02-26T05:16:29;0.70;;;0.60;;
35496;SDS011;21609;49.298;6.844;2024-02-26T05:18:56;0.65;;;0.50;;
35496;SDS011;21609;49.298;6.844;2024-02-26T05:21:22;1.60;;;0.75;;
35496;SDS011;21609;49.298;6.844;2024-02-26T05:23:47;0.50;;;0.50;;
35496;SDS011;21609;49.298;6.844;2024-02-26T05:26:19;0.77;;;0.60;;
35496;SDS011;21609;49.298;6.844;2024-02-26T05:28:45;0.47;;;0.45;;
35496;SDS011;21609;49.298;6.844;2024-02-26T05:31:12;0.68;;;0.52;;
35496;SDS011;21609;49.298;6.844;2024-02-26T05:33:39;0.50;;;0.38;;
35496;SDS011;21609;49.298;6.844;2024-02-26T05:36:04;0.65;;;0.55;;
35496;SDS011;21609;49.298;6.844;2024-02-26T05:38:30;0.60;;;0.55;;
35496;SDS011;21609;49.298;6.844;2024-02-26T05:40:59;0.45;;;0.40;;
35496;SDS011;21609;49.298;6.844;2024-02-26T05:43:25;0.80;;;0.63;;
35496;SDS011;21609;49.298;6.844;2024-02-26T05:45:51;0.75;;;0.57;;
35496;SDS011;21609;49.298;6.844;2024-02-26T05:48:17;0.73;;;0.60;;
35496;SDS011;21609;49.298;6.844;2024-02-26T05:50:44;0.98;;;0.43;;
35496;SDS011;21609;49.298;6.844;2024-02-26T05:53:10;0.82;;;0.60;;
35496;SDS011;21609;49.298;6.844;2024-02-26T05:55:36;0.47;;;0.47;;
35496;SDS011;21609;49.298;6.844;2024-02-26T05:58:02;1.00;;;0.50;;
35496;SDS011;21609;49.298;6.844;2024-02-26T06:00:27;1.05;;;0.50;;
35496;SDS011;21609;49.298;6.844;2024-02-26T06:02:53;0.77;;;0.45;;
35496;SDS011;21609;49.298;6.844;2024-02-26T06:05:18;0.60;;;0.55;;
35496;SDS011;21609;49.298;6.844;2024-02-26T06:07:44;0.70;;;0.60;;
35496;SDS011;21609;49.298;6.844;2024-02-26T06:10:10;0.60;;;0.55;;
35496;SDS011;21609;49.298;6.844;2024-02-26T06:12:35;0.50;;;0.50;;
35496;SDS011;21609;49.298;6.844;2024-02-26T06:15:01;0.50;;;0.40;;
35496;SDS011;21609;49.298;6.844;2024-02-26T06:17:27;0.30;;;0.30;;
35496;SDS011;21609;49.298;6.844;2024-02-26T06:19:53;0.38;;;0.32;;
35496;SDS011;21609;49.298;6.844;2024-02-26T06:22:19;1.83;;;0.50;;
35496;SDS011;21609;49.298;6.844;2024-02-26T06:24:44;2.22;;;0.50;;
35496;SDS011;21609;49.298;6.844;2024-02-26T06:27:10;0.55;;;0.40;;
35496;SDS011;21609;49.298;6.844;2024-02-26T06:29:35;0.88;;;0.60;;
35496;SDS011;21609;49.298;6.844;2024-02-26T06:32:01;0.77;;;0.52;;
35496;SDS011;21609;49.298;6.844;2024-02-26T06:34:26;0.45;;;0.45;;
35496;SDS011;21609;49.298;6.844;2024-02-26T06:36:52;0.43;;;0.40;;
35496;SDS011;21609;49.298;6.844;2024-02-26T06:39:17;0.73;;;0.47;;
35496;SDS011;21609;49.298;6.844;2024-02-26T06:41:43;1.52;;;0.60;;
35496;SDS011;21609;49.298;6.844;2024-02-26T06:44:11;0.60;;;0.60;;
35496;SDS011;21609;49.298;6.844;2024-02-26T06:46:38;1.45;;;0.50;;
35496;SDS011;21609;49.298;6.844;2024-02-26T06:49:03;0.43;;;0.40;;
35496;SDS011;21609;49.298;6.844;2024-02-26T06:51:29;0.35;;;0.35;;
35496;SDS011;21609;49.298;6.844;2024-02-26T06:53:54;1.30;;;0.40;;
35496;SDS011;21609;49.298;6.844;2024-02-26T06:56:20;1.08;;;0.40;;
35496;SDS011;21609;49.298;6.844;2024-02-26T06:58:45;0.63;;;0.60;;
35496;SDS011;21609;49.298;6.844;2024-02-26T07:01:12;0.50;;;0.50;;
35496;SDS011;21609;49.298;6.844;2024-02-26T07:03:37;0.45;;;0.40;;
35496;SDS011;21609;49.298;6.844;2024-02-26T07:06:05;0.73;;;0.60;;
35496;SDS011;21609;49.298;6.844;2024-02-26T07:08:31;0.40;;;0.30;;
35496;SDS011;21609;49.298;6.844;2024-02-26T07:10:57;0.47;;;0.38;;
35496;SDS011;21609;49.298;6.844;2024-02-26T07:13:23;0.95;;;0.60;;
35496;SDS011;21609;49.298;6.844;2024-02-26T07:15:48;0.73;;;0.50;;
35496;SDS011;21609;49.298;6.844;2024-02-26T07:18:14;1.50;;;0.70;;
35496;SDS011;21609;49.298;6.844;2024-02-26T07:20:39;0.55;;;0.50;;
35496;SDS011;21609;49.298;6.844;2024-02-26T07:23:05;1.00;;;0.35;;
35496;SDS011;21609;49.298;6.844;2024-02-26T07:25:31;0.65;;;0.50;;
35496;SDS011;21609;49.298;6.844;2024-02-26T07:27:57;0.30;;;0.30;;
35496;SDS011;21609;49.298;6.844;2024-02-26T07:30:22;0.40;;;0.40;;
35496;SDS011;21609;49.298;6.844;2024-02-26T07:32:49;0.57;;;0.57;;
35496;SDS011;21609;49.298;6.844;2024-02-26T07:35:15;0.60;;;0.50;;
35496;SDS011;21609;49.298;6.844;2024-02-26T07:37:41;0.70;;;0.60;;
35496;SDS011;21609;49.298;6.844;2024-02-26T07:40:07;0.70;;;0.70;;
35496;SDS011;21609;49.298;6.844;2024-02-26T07:42:33;1.00;;;0.90;;
35496;SDS011;21609;49.298;6.844;2024-02-26T07:44:58;0.77;;;0.38;;
35496;SDS011;21609;49.298;6.844;2024-02-26T07:47:24;0.65;;;0.60;;
35496;SDS011;21609;49.298;6.844;2024-02-26T07:49:50;1.20;;;0.60;;
35496;SDS011;21609;49.298;6.844;2024-02-26T07:52:15;0.82;;;0.60;;
35496;SDS011;21609;49.298;6.844;2024-02-26T07:54:41;1.88;;;0.60;;
35496;SDS011;21609;49.298;6.844;2024-02-26T07:57:06;0.85;;;0.47;;
35496;SDS011;21609;49.298;6.844;2024-02-26T07:59:32;1.63;;;0.50;;
35496;SDS011;21609;49.298;6.844;2024-02-26T08:01:57;0.95;;;0.60;;
35496;SDS011;21609;49.298;6.844;2024-02-26T08:04:23;1.83;;;0.60;;
35496;SDS011;21609;49.298;6.844;2024-02-26T08:06:50;0.40;;;0.40;;
35496;SDS011;21609;49.298;6.844;2024-02-26T08:09:16;0.57;;;0.40;;
35496;SDS011;21609;49.298;6.844;2024-02-26T08:11:41;0.60;;;0.60;;
35496;SDS011;21609;49.298;6.844;2024-02-26T08:14:07;0.68;;;0.50;;
35496;SDS011;21609;49.298;6.844;2024-02-26T08:16:32;9.10;;;3.40;;
35496;SDS011;21609;49.298;6.844;2024-02-26T08:18:58;2.97;;;1.40;;
35496;SDS011;21609;49.298;6.844;2024-02-26T08:21:23;6.78;;;1.10;;
35496;SDS011;21609;49.298;6.844;2024-02-26T08:23:49;3.28;;;1.40;;
35496;SDS011;21609;49.298;6.844;2024-02-26T08:26:14;1.63;;;1.08;;
35496;SDS011;21609;49.298;6.844;2024-02-26T08:28:40;2.67;;;1.35;;
35496;SDS011;21609;49.298;6.844;2024-02-26T08:31:05;1.30;;;0.70;;
35496;SDS011;21609;49.298;6.844;2024-02-26T08:33:31;1.73;;;1.10;;
35496;SDS011;21609;49.298;6.844;2024-02-26T08:35:58;1.20;;;0.60;;
35496;SDS011;21609;49.298;6.844;2024-02-26T08:38:24;1.17;;;0.70;;
35496;SDS011;21609;49.298;6.844;2024-02-26T08:40:50;2.38;;;0.57;;
35496;SDS011;21609;49.298;6.844;2024-02-26T08:43:15;1.40;;;0.90;;
35496;SDS011;21609;49.298;6.844;2024-02-26T08:45:41;1.10;;;0.57;;
35496;SDS011;21609;49.298;6.844;2024-02-26T08:48:06;1.15;;;0.68;;
35496;SDS011;21609;49.298;6.844;2024-02-26T08:50:32;2.60;;;1.05;;
35496;SDS011;21609;49.298;6.844;2024-02-26T08:52:58;1.30;;;0.80;;
35496;SDS011;21609;49.298;6.844;2024-02-26T08:55:26;1.00;;;0.68;;
35496;SDS011;21609;49.298;6.844;2024-02-26T08:57:51;2.15;;;0.98;;
35496;SDS011;21609;49.298;6.844;2024-02-26T09:00:17;2.75;;;0.85;;
35496;SDS011;21609;49.298;6.844;2024-02-26T09:02:45;1.88;;;0.52;;
35496;SDS011;21609;49.298;6.844;2024-02-26T09:05:11;0.85;;;0.60;;
35496;SDS011;21609;49.298;6.844;2024-02-26T09:07:37;0.73;;;0.57;;
35496;SDS011;21609;49.298;6.844;2024-02-26T09:10:03;0.60;;;0.50;;
35496;SDS011;21609;49.298;6.844;2024-02-26T09:12:29;0.88;;;0.50;;
35496;SDS011;21609;49.298;6.844;2024-02-26T09:14:55;1.27;;;0.60;;
35496;SDS011;21609;49.298;6.844;2024-02-26T09:17:22;1.77;;;0.50;;
35496;SDS011;21609;49.298;6.844;2024-02-26T09:19:48;0.45;;;0.30;;
35496;SDS011;21609;49.298;6.844;2024-02-26T09:22:13;0.47;;;0.28;;
35496;SDS011;21609;49.298;6.844;2024-02-26T09:24:39;2.42;;;0.40;;
35496;SDS011;21609;49.298;6.844;2024-02-26T09:27:05;0.82;;;0.50;;
35496;SDS011;21609;49.298;6.844;2024-02-26T09:29:30;1.85;;;0.55;;
35496;SDS011;21609;49.298;6.844;2024-02-26T09:31:56;3.35;;;0.55;;
35496;SDS011;21609;49.298;6.844;2024-02-26T09:34:21;0.40;;;0.40;;
35496;SDS011;21609;49.298;6.844;2024-02-26T09:36:47;1.48;;;0.35;;
35496;SDS011;21609;49.298;6.844;2024-02-26T09:39:12;1.13;;;0.40;;
35496;SDS011;21609;49.298;6.844;2024-02-26T09:41:39;0.75;;;0.47;;
35496;SDS011;21609;49.298;6.844;2024-02-26T09:44:05;0.68;;;0.30;;
35496;SDS011;21609;49.298;6.844;2024-02-26T09:46:31;0.52;;;0.50;;
35496;SDS011;21609;49.298;6.844;2024-02-26T09:48:57;0.70;;;0.50;;
35496;SDS011;21609;49.298;6.844;2024-02-26T09:51:23;0.50;;;0.40;;
35496;SDS011;21609;49.298;6.844;2024-02-26T09:53:52;1.13;;;0.50;;
35496;SDS011;21609;49.298;6.844;2024-02-26T09:56:18;0.40;;;0.40;;
35496;SDS011;21609;49.298;6.844;2024-02-26T09:58:44;0.30;;;0.30;;
35496;SDS011;21609;49.298;6.844;2024-02-26T10:01:15;0.40;;;0.40;;
35496;SDS011;21609;49.298;6.844;2024-02-26T10:03:43;0.80;;;0.30;;
35496;SDS011;21609;49.298;6.844;2024-02-26T10:06:10;0.35;;;0.30;;
35496;SDS011;21609;49.298;6.844;2024-02-26T10:08:36;0.55;;;0.40;;
35496;SDS011;21609;49.298;6.844;2024-02-26T10:11:02;0.90;;;0.40;;
35496;SDS011;21609;49.298;6.844;2024-02-26T10:13:29;0.40;;;0.40;;
35496;SDS011;21609;49.298;6.844;2024-02-26T10:15:55;1.50;;;0.60;;
35496;SDS011;21609;49.298;6.844;2024-02-26T10:18:22;1.23;;;0.90;;
35496;SDS011;21609;49.298;6.844;2024-02-26T10:20:58;1.45;;;1.10;;
35496;SDS011;21609;49.298;6.844;2024-02-26T10:23:26;1.27;;;0.52;;
35496;SDS011;21609;49.298;6.844;2024-02-26T10:25:54;1.42;;;0.80;;
35496;SDS011;21609;49.298;6.844;2024-02-26T10:28:20;0.60;;;0.52;;
35496;SDS011;21609;49.298;6.844;2024-02-26T10:30:47;1.05;;;0.60;;
35496;SDS011;21609;49.298;6.844;2024-02-26T10:33:13;1.67;;;0.52;;
35496;SDS011;21609;49.298;6.844;2024-02-26T10:35:39;0.57;;;0.50;;
35496;SDS011;21609;49.298;6.844;2024-02-26T10:38:10;0.70;;;0.45;;
35496;SDS011;21609;49.298;6.844;2024-02-26T10:40:35;5.45;;;0.60;;
35496;SDS011;21609;49.298;6.844;2024-02-26T10:43:01;0.50;;;0.45;;
35496;SDS011;21609;49.298;6.844;2024-02-26T10:45:27;0.52;;;0.47;;
35496;SDS011;21609;49.298;6.844;2024-02-26T10:47:53;1.20;;;0.80;;
35496;SDS011;21609;49.298;6.844;2024-02-26T10:50:19;1.77;;;0.40;;
35496;SDS011;21609;49.298;6.844;2024-02-26T10:52:44;3.60;;;1.70;;
35496;SDS011;21609;49.298;6.844;2024-02-26T10:55:13;2.67;;;1.65;;
35496;SDS011;21609;49.298;6.844;2024-02-26T10:57:43;2.80;;;0.90;;
35496;SDS011;21609;49.298;6.844;2024-02-26T11:00:10;1.30;;;0.90;;
35496;SDS011;21609;49.298;6.844;2024-02-26T11:02:40;1.40;;;0.88;;
35496;SDS011;21609;49.298;6.844;2024-02-26T11:05:06;2.03;;;1.20;;
35496;SDS011;21609;49.298;6.844;2024-02-26T11:07:35;1.33;;;0.80;;
35496;SDS011;21609;49.298;6.844;2024-02-26T11:10:02;1.52;;;0.80;;
35496;SDS011;21609;49.298;6.844;2024-02-26T11:12:29;2.28;;;1.13;;
35496;SDS011;21609;49.298;6.844;2024-02-26T11:14:56;1.10;;;0.80;;
35496;SDS011;21609;49.298;6.844;2024-02-26T11:17:25;2.08;;;1.08;;
35496;SDS011;21609;49.298;6.844;2024-02-26T11:19:56;1.90;;;1.27;;
35496;SDS011;21609;49.298;6.844;2024-02-26T11:22:23;2.00;;;1.10;;
35496;SDS011;21609;49.298;6.844;2024-02-26T11:24:51;2.05;;;0.80;;
35496;SDS011;21609;49.298;6.844;2024-02-26T11:27:18;2.53;;;1.15;;
35496;SDS011;21609;49.298;6.844;2024-02-26T11:29:50;0.95;;;0.85;;
35496;SDS011;21609;49.298;6.844;2024-02-26T11:32:17;1.33;;;1.02;;
35496;SDS011;21609;49.298;6.844;2024-02-26T11:34:43;2.03;;;1.42;;
35496;SDS011;21609;49.298;6.844;2024-02-26T11:37:10;2.67;;;1.52;;
35496;SDS011;21609;49.298;6.844;2024-02-26T11:39:41;1.45;;;1.35;;
35496;SDS011;21609;49.298;6.844;2024-02-26T11:42:08;1.00;;;0.90;;
35496;SDS011;21609;49.298;6.844;2024-02-26T11:44:34;2.58;;;1.30;;
35496;SDS011;21609;49.298;6.844;2024-02-26T11:47:12;4.18;;;1.50;;
35496;SDS011;21609;49.298;6.844;2024-02-26T11:49:39;3.05;;;1.27;;
35496;SDS011;21609;49.298;6.844;2024-02-26T11:52:05;3.28;;;1.45;;
35496;SDS011;21609;49.298;6.844;2024-02-26T11:59:45;3.58;;;1.38;;
35496;SDS011;21609;49.298;6.844;2024-02-26T12:02:10;1.83;;;1.30;;
35496;SDS011;21609;49.298;6.844;2024-02-26T12:04:37;3.65;;;1.38;;
35496;SDS011;21609;49.298;6.844;2024-02-26T12:07:03;2.45;;;0.90;;
35496;SDS011;21609;49.298;6.844;2024-02-26T12:09:34;3.30;;;1.50;;
35496;SDS011;21609;49.298;6.844;2024-02-26T12:12:07;1.33;;;1.05;;
35496;SDS011;21609;49.298;6.844;2024-02-26T12:14:38;2.33;;;1.40;;
35496;SDS011;21609;49.298;6.844;2024-02-26T12:17:04;1.17;;;1.00;;
35496;SDS011;21609;49.298;6.844;2024-02-26T12:19:32;1.35;;;1.00;;
35496;SDS011;21609;49.298;6.844;2024-02-26T12:22:00;2.17;;;1.10;;
35496;SDS011;21609;49.298;6.844;2024-02-26T12:24:25;1.75;;;0.98;;
35496;SDS011;21609;49.298;6.844;2024-02-26T12:26:51;1.92;;;1.17;;
35496;SDS011;21609;49.298;6.844;2024-02-26T12:29:16;3.17;;;1.23;;
35496;SDS011;21609;49.298;6.844;2024-02-26T12:31:42;1.80;;;1.00;;
35496;SDS011;21609;49.298;6.844;2024-02-26T12:34:08;1.38;;;1.10;;
35496;SDS011;21609;49.298;6.844;2024-02-26T12:36:34;1.00;;;0.90;;
35496;SDS011;21609;49.298;6.844;2024-02-26T12:39:02;1.58;;;0.85;;
35496;SDS011;21609;49.298;6.844;2024-02-26T12:41:30;4.83;;;1.20;;
35496;SDS011;21609;49.298;6.844;2024-02-26T12:43:57;1.23;;;0.82;;
35496;SDS011;21609;49.298;6.844;2024-02-26T12:46:23;1.10;;;1.00;;
35496;SDS011;21609;49.298;6.844;2024-02-26T12:48:49;1.67;;;1.10;;
35496;SDS011;21609;49.298;6.844;2024-02-26T12:51:15;1.65;;;1.15;;
35496;SDS011;21609;49.298;6.844;2024-02-26T12:53:41;2.85;;;0.95;;
35496;SDS011;21609;49.298;6.844;2024-02-26T12:56:07;4.03;;;1.30;;
35496;SDS011;21609;49.298;6.844;2024-02-26T12:58:34;1.83;;;0.90;;
35496;SDS011;21609;49.298;6.844;2024-02-26T13:01:03;2.78;;;1.08;;
35496;SDS011;21609;49.298;6.844;2024-02-26T13:03:29;4.03;;;1.00;;
35496;SDS011;21609;49.298;6.844;2024-02-26T13:05:55;1.67;;;0.70;;
35496;SDS011;21609;49.298;6.844;2024-02-26T13:08:21;1.23;;;0.90;;
35496;SDS011;21609;49.298;6.844;2024-02-26T13:10:47;1.65;;;1.20;;
35496;SDS011;21609;49.298;6.844;2024-02-26T13:13:17;1.75;;;0.98;;
35496;SDS011;21609;49.298;6.844;2024-02-26T13:15:43;0.98;;;0.88;;
35496;SDS011;21609;49.298;6.844;2024-02-26T13:18:15;3.30;;;0.98;;
35496;SDS011;21609;49.298;6.844;2024-02-26T13:20:41;3.28;;;1.05;;
35496;SDS011;21609;49.298;6.844;2024-02-26T13:23:07;4.20;;;1.30;;
35496;SDS011;21609;49.298;6.844;2024-02-26T13:25:37;1.30;;;1.00;;
35496;SDS011;21609;49.298;6.844;2024-02-26T13:28:05;1.98;;;1.20;;
35496;SDS011;21609;49.298;6.844;2024-02-26T13:30:37;1.38;;;0.90;;
35496;SDS011;21609;49.298;6.844;2024-02-26T13:33:09;2.22;;;1.10;;
35496;SDS011;21609;49.298;6.844;2024-02-26T13:35:37;1.20;;;1.10;;
35496;SDS011;21609;49.298;6.844;2024-02-26T13:38:04;2.03;;;1.00;;
35496;SDS011;21609;49.298;6.844;2024-02-26T13:40:33;1.67;;;1.08;;
35496;SDS011;21609;49.298;6.844;2024-02-26T13:43:00;1.67;;;1.10;;
35496;SDS011;21609;49.298;6.844;2024-02-26T13:45:25;2.42;;;1.00;;
35496;SDS011;21609;49.298;6.844;2024-02-26T13:47:51;2.10;;;1.27;;
35496;SDS011;21609;49.298;6.844;2024-02-26T13:50:16;1.05;;;0.77;;
35496;SDS011;21609;49.298;6.844;2024-02-26T13:52:46;0.93;;;0.75;;
35496;SDS011;21609;49.298;6.844;2024-02-26T13:55:20;1.33;;;0.90;;
35496;SDS011;21609;49.298;6.844;2024-02-26T13:57:47;1.10;;;1.00;;
35496;SDS011;21609;49.298;6.844;2024-02-26T14:00:13;2.40;;;1.27;;
35496;SDS011;21609;49.298;6.844;2024-02-26T14:02:39;1.23;;;1.13;;
35496;SDS011;21609;49.298;6.844;2024-02-26T14:05:04;2.15;;;1.30;;
35496;SDS011;21609;49.298;6.844;2024-02-26T14:07:30;1.20;;;1.10;;
35496;SDS011;21609;49.298;6.844;2024-02-26T14:09:57;2.55;;;1.02;;
35496;SDS011;21609;49.298;6.844;2024-02-26T14:12:23;1.58;;;1.15;;
35496;SDS011;21609;49.298;6.844;2024-02-26T14:14:49;1.70;;;1.52;;
35496;SDS011;21609;49.298;6.844;2024-02-26T14:17:14;3.42;;;1.00;;
35496;SDS011;21609;49.298;6.844;2024-02-26T14:19:40;1.52;;;1.13;;
35496;SDS011;21609;49.298;6.844;2024-02-26T14:22:10;1.13;;;0.90;;
35496;SDS011;21609;49.298;6.844;2024-02-26T14:24:36;1.40;;;0.73;;
35496;SDS011;21609;49.298;6.844;2024-02-26T14:27:02;1.77;;;1.30;;
35496;SDS011;21609;49.298;6.844;2024-02-26T14:29:28;0.95;;;0.95;;
35496;SDS011;21609;49.298;6.844;2024-02-26T14:31:54;2.42;;;1.13;;
35496;SDS011;21609;49.298;6.844;2024-02-26T14:34:21;1.50;;;0.80;;
35496;SDS011;21609;49.298;6.844;2024-02-26T14:36:47;0.88;;;0.88;;
35496;SDS011;21609;49.298;6.844;2024-02-26T14:39:12;1.63;;;0.82;;
35496;SDS011;21609;49.298;6.844;2024-02-26T14:41:38;2.45;;;1.10;;
35496;SDS011;21609;49.298;6.844;2024-02-26T14:44:04;0.88;;;0.70;;
35496;SDS011;21609;49.298;6.844;2024-02-26T14:46:30;1.63;;;1.00;;
35496;SDS011;21609;49.298;6.844;2024-02-26T14:48:55;5.03;;;1.10;;